Time;durP1;ratioP1;P1;durP2;ratioP2;P2;SDS_P1;SDS_P2;PMS_P1;PMS_P2;Temp;Humidity;BMP_temperature;BMP_pressure;BME280_temperature;BME280_humidity;BME280_pressure;Samples;Min_cycle;Max_cycle;Signal;HPM_P1;HPM_P2
2022/12/08 09:42:24;;;;;;;5.20;2.53;;;21.40;51.10;;;;;;5089367;27;20552;-41
2022/12/08 09:44:50;;;;;;;3.07;2.50;;;21.40;51.50;;;;;;5084051;28;20227;-35
2022/12/08 09:47:17;;;;;;;3.13;2.90;;;21.40;51.40;;;;;;5080256;28;21130;-38
2022/12/08 09:49:43;;;;;;;5.15;3.40;;;21.30;51.40;;;;;;5069636;28;20235;-38
2022/12/08 09:52:10;;;;;;;4.63;2.65;;;21.40;51.70;;;;;;5063623;28;20228;-32
2022/12/08 09:54:36;;;;;;;4.72;2.58;;;21.30;51.40;;;;;;5055655;28;20201;-34
2022/12/08 09:57:03;;;;;;;4.35;2.60;;;21.20;51.80;;;;;;5063644;28;20197;-35
2022/12/08 09:59:29;;;;;;;3.85;3.17;;;21.20;51.80;;;;;;5062597;28;20208;-35
2022/12/08 10:01:55;;;;;;;5.65;2.65;;;21.20;52.00;;;;;;5054748;28;20597;-35
2022/12/08 10:04:22;;;;;;;3.55;2.50;;;21.30;51.60;;;;;;5081191;28;20201;-35
2022/12/08 10:06:48;;;;;;;4.00;3.35;;;21.30;51.80;;;;;;5083846;28;20200;-35
2022/12/08 10:09:15;;;;;;;4.55;3.60;;;21.20;49.40;;;;;;5074400;28;20531;-35
2022/12/08 10:11:41;;;;;;;4.45;3.58;;;21.10;48.10;;;;;;5083729;28;20597;-34
2022/12/08 10:14:07;;;;;;;6.30;3.45;;;21.10;47.30;;;;;;5078886;28;20201;-34
2022/12/08 10:16:34;;;;;;;3.65;2.60;;;21.10;48.30;;;;;;5055985;28;20212;-35
2022/12/08 10:19:00;;;;;;;3.75;2.88;;;21.10;49.30;;;;;;5087715;28;20201;-36
2022/12/08 10:21:27;;;;;;;3.33;2.53;;;21.10;49.70;;;;;;5081090;28;20568;-35
2022/12/08 10:23:53;;;;;;;3.72;2.60;;;21.10;49.50;;;;;;5079294;28;20254;-37
2022/12/08 10:26:20;;;;;;;3.92;2.85;;;21.10;49.70;;;;;;5083101;28;20205;-37
2022/12/08 10:28:46;;;;;;;3.88;3.00;;;21.10;49.70;;;;;;5080230;28;20200;-34
2022/12/08 10:31:12;;;;;;;2.78;2.40;;;21.10;49.70;;;;;;5076083;28;20229;-34
2022/12/08 10:33:39;;;;;;;3.35;2.55;;;21.20;49.90;;;;;;5079427;28;20533;-38
2022/12/08 10:36:05;;;;;;;3.15;2.25;;;21.20;49.90;;;;;;5082154;28;20641;-34
2022/12/08 10:38:32;;;;;;;5.28;2.72;;;21.20;49.80;;;;;;5086725;28;20299;-35
2022/12/08 10:40:58;;;;;;;3.28;2.17;;;21.20;49.90;;;;;;5087248;28;20244;-37
2022/12/08 10:43:25;;;;;;;3.33;2.50;;;21.20;49.90;;;;;;5084390;28;20386;-36
2022/12/08 10:45:51;;;;;;;4.05;2.10;;;21.20;50.50;;;;;;5088138;28;20204;-36
2022/12/08 10:48:17;;;;;;;2.28;2.05;;;21.20;49.90;;;;;;5079384;28;20224;-33
2022/12/08 10:50:44;;;;;;;2.42;2.22;;;21.20;49.90;;;;;;5082100;28;20327;-36
2022/12/08 10:53:11;;;;;;;2.47;2.00;;;21.20;50.20;;;;;;5064731;28;20669;-35
2022/12/08 10:55:37;;;;;;;2.33;1.80;;;21.20;50.30;;;;;;5070170;28;20219;-36
2022/12/08 10:58:04;;;;;;;2.65;2.28;;;21.10;50.30;;;;;;5058200;28;20603;-38
2022/12/08 11:00:30;;;;;;;2.47;2.08;;;21.10;50.40;;;;;;5064935;28;20610;-33
2022/12/08 11:02:56;;;;;;;2.90;2.10;;;21.10;50.30;;;;;;5070552;28;20213;-35
2022/12/08 11:05:23;;;;;;;2.47;2.15;;;21.20;50.60;;;;;;5066956;28;20197;-37
2022/12/08 11:07:49;;;;;;;3.83;2.20;;;21.10;50.40;;;;;;5069020;28;20204;-37
2022/12/08 11:10:16;;;;;;;3.15;2.45;;;21.10;50.40;;;;;;5057905;28;20255;-38
2022/12/08 11:12:42;;;;;;;2.47;2.20;;;21.10;51.20;;;;;;5072378;28;20227;-32
2022/12/08 11:15:09;;;;;;;2.38;2.05;;;21.10;50.50;;;;;;5056636;28;20198;-37
2022/12/08 11:17:38;;;;;;;2.92;2.22;;;21.10;50.50;;;;;;5062381;28;20662;-35
2022/12/08 11:20:05;;;;;;;3.17;2.28;;;21.10;50.50;;;;;;5059684;28;20863;-37
2022/12/08 11:22:31;;;;;;;2.10;1.90;;;21.10;50.60;;;;;;5064751;28;20229;-34
2022/12/08 11:24:58;;;;;;;2.47;2.28;;;21.10;50.60;;;;;;5053741;28;20205;-32
2022/12/08 11:27:24;;;;;;;2.20;2.00;;;21.10;50.60;;;;;;5064749;28;20873;-37
2022/12/08 11:29:51;;;;;;;2.22;2.00;;;21.10;50.60;;;;;;5071410;28;20221;-38
2022/12/08 11:32:17;;;;;;;2.45;2.25;;;21.10;50.60;;;;;;5071393;28;20215;-35
